Time;durP1;ratioP1;P1;durP2;ratioP2;P2;SDS_P1;SDS_P2;PMS_P1;PMS_P2;Temp;Humidity;BMP_temperature;BMP_pressure;BME280_temperature;BME280_humidity;BME280_pressure;Samples;Min_cycle;Max_cycle;Signal;HPM_P1;HPM_P2
2023/07/12 00:00:56;;;;;;;;;;;;;;;;;;5028964;28;1058;-67
2023/07/12 00:03:22;;;;;;;;;;;;;;;;;;5040252;28;4617;-62
2023/07/12 00:05:47;;;;;;;;;;;;;;;;;;5048339;28;4814;-62
2023/07/12 00:08:17;;;;;;;;;;;;;;;;;;5048148;28;5393;-63
2023/07/12 00:10:42;;;;;;;;;;;;;;;;;;5046515;28;4634;-63
2023/07/12 00:13:07;;;;;;;;;;;;;;;;;;5048061;28;4979;-62
2023/07/12 00:15:33;;;;;;;;;;;;;;;;;;5047159;28;1109;-70
2023/07/12 00:17:58;;;;;;;;;;;;;;;;;;5046936;28;4454;-67
2023/07/12 00:20:23;;;;;;;;;;;;;;;;;;5048274;28;4983;-65
2023/07/12 00:22:50;;;;;;;;;;;;;;;;;;5047448;28;5373;-70
2023/07/12 00:25:16;;;;;;;;;;;;;;;;;;5044296;28;5133;-62
2023/07/12 00:27:41;;;;;;;;;;;;;;;;;;5047921;28;1270;-64
2023/07/12 00:30:14;;;;;;;;;;;;;;;;;;5048009;28;4994;-66
2023/07/12 00:32:40;;;;;;;;;;;;;;;;;;5062743;28;4884;-63
2023/07/12 00:35:05;;;;;;;;;;;;;;;;;;5041110;28;4912;-63
2023/07/12 00:37:30;;;;;;;;;;;;;;;;;;5045913;28;5031;-63
2023/07/12 00:39:55;;;;;;;;;;;;;;;;;;5046853;28;1177;-64
2023/07/12 00:42:27;;;;;;;;;;;;;;;;;;5047348;28;4892;-67
2023/07/12 00:44:54;;;;;;;;;;;;;;;;;;5062677;28;4772;-67
2023/07/12 00:47:19;;;;;;;;;;;;;;;;;;5047473;28;5103;-64
2023/07/12 00:49:45;;;;;;;;;;;;;;;;;;5047735;28;4507;-64
2023/07/12 00:52:11;;;;;;;;;;;;;;;;;;5058955;28;5033;-65
2023/07/12 00:54:49;;;;;;;;;;;;;;;;;;5047889;28;1226;-63
2023/07/12 00:57:14;;;;;;;;;;;;;;;;;;5046930;28;5057;-68
2023/07/12 00:59:39;;;;;;;;;;;;;;;;;;5047642;28;5070;-64
2023/07/12 01:02:05;;;;;;;;;;;;;;;;;;5062283;28;5084;-72
2023/07/12 01:04:35;;;;;;;;;;;;;;;;;;5062972;28;4981;-63
2023/07/12 01:07:01;;;;;;;;;;;;;;;;;;5061113;28;1456;-62
2023/07/12 01:09:26;;;;;;;;;;;;;;;;;;5047155;28;5029;-63
2023/07/12 01:11:51;;;;;;;;;;;;;;;;;;5043732;28;4975;-67
2023/07/12 01:14:16;;;;;;;;;;;;;;;;;;5026756;28;4541;-62
2023/07/12 01:16:42;;;;;;;;;;;;;;;;;;5047120;28;5116;-63
2023/07/12 01:19:08;;;;;;;;;;;;;;;;;;5047505;28;5096;-73
2023/07/12 01:21:33;;;;;;;;;;;;;;;;;;5041028;28;5016;-73
2023/07/12 01:23:59;;;;;;;;;;;;;;;;;;5047874;28;5032;-63
2023/07/12 01:26:25;;;;;;;;;;;;;;;;;;5061781;28;5079;-64
2023/07/12 01:28:57;;;;;;;;;;;;;;;;;;5047104;28;5166;-63
2023/07/12 01:31:22;;;;;;;;;;;;;;;;;;5047510;28;4876;-65
2023/07/12 01:33:48;;;;;;;;;;;;;;;;;;5047528;28;1172;-65
2023/07/12 01:36:13;;;;;;;;;;;;;;;;;;5054984;28;4954;-65
2023/07/12 01:38:38;;;;;;;;;;;;;;;;;;5047267;28;5088;-65
2023/07/12 01:41:04;;;;;;;;;;;;;;;;;;5047603;28;5130;-65
2023/07/12 01:43:29;;;;;;;;;;;;;;;;;;5046306;28;5218;-65
2023/07/12 01:45:54;;;;;;;;;;;;;;;;;;5047313;28;1902;-63
2023/07/12 01:48:19;;;;;;;;;;;;;;;;;;5046385;28;5169;-64
2023/07/12 01:50:45;;;;;;;;;;;;;;;;;;5048666;28;4463;-63
2023/07/12 01:53:10;;;;;;;;;;;;;;;;;;5065458;28;4641;-75
2023/07/12 01:55:35;;;;;;;;;;;;;;;;;;5050735;28;4450;-67
2023/07/12 01:58:00;;;;;;;;;;;;;;;;;;5051563;28;1222;-64
2023/07/12 02:00:26;;;;;;;;;;;;;;;;;;5050334;28;4424;-65
2023/07/12 02:02:51;;;;;;;;;;;;;;;;;;5046644;28;4926;-68
2023/07/12 02:05:18;;;;;;;;;;;;;;;;;;5050176;28;4607;-60
2023/07/12 02:07:43;;;;;;;;;;;;;;;;;;5050232;28;4436;-68
2023/07/12 02:10:09;;;;;;;;;;;;;;;;;;5050126;28;4492;-64
2023/07/12 02:12:34;;;;;;;;;;;;;;;;;;5050313;28;1401;-63
2023/07/12 02:14:59;;;;;;;;;;;;;;;;;;5045668;28;5254;-63
2023/07/12 02:17:24;;;;;;;;;;;;;;;;;;5047194;28;5099;-64
2023/07/12 02:19:49;;;;;;;;;;;;;;;;;;5049768;28;5002;-65
2023/07/12 02:22:15;;;;;;;;;;;;;;;;;;5049904;28;5648;-64
2023/07/12 02:24:40;;;;;;;;;;;;;;;;;;5050289;28;1956;-62
2023/07/12 02:27:05;;;;;;;;;;;;;;;;;;5049675;28;4870;-63
2023/07/12 02:29:30;;;;;;;;;;;;;;;;;;5064927;28;4889;-69
2023/07/12 02:31:56;;;;;;;;;;;;;;;;;;5050000;28;5045;-66
2023/07/12 02:34:21;;;;;;;;;;;;;;;;;;5049729;28;4482;-73
2023/07/12 02:36:46;;;;;;;;;;;;;;;;;;5050603;28;1145;-69
2023/07/12 02:39:11;;;;;;;;;;;;;;;;;;5049506;28;4572;-67
2023/07/12 02:41:37;;;;;;;;;;;;;;;;;;5049319;28;4616;-67
2023/07/12 02:44:02;;;;;;;;;;;;;;;;;;5048434;28;4700;-63
2023/07/12 02:46:27;;;;;;;;;;;;;;;;;;5046958;28;4652;-65
2023/07/12 02:48:52;;;;;;;;;;;;;;;;;;5050274;28;1205;-68
2023/07/12 02:51:18;;;;;;;;;;;;;;;;;;5049702;28;4989;-65
2023/07/12 02:53:43;;;;;;;;;;;;;;;;;;5048712;28;5120;-63
2023/07/12 02:56:08;;;;;;;;;;;;;;;;;;5049353;28;5025;-62
2023/07/12 02:58:34;;;;;;;;;;;;;;;;;;5049410;28;5002;-62
2023/07/12 03:00:59;;;;;;;;;;;;;;;;;;5050040;28;1139;-66
2023/07/12 03:03:26;;;;;;;;;;;;;;;;;;5048493;28;4593;-66
2023/07/12 03:05:51;;;;;;;;;;;;;;;;;;5049456;28;5050;-62
2023/07/12 03:08:16;;;;;;;;;;;;;;;;;;5049392;28;5830;-62
2023/07/12 03:10:41;;;;;;;;;;;;;;;;;;5049027;28;4632;-64
2023/07/12 03:13:09;;;;;;;;;;;;;;;;;;5045305;28;5142;-65
2023/07/12 03:15:36;;;;;;;;;;;;;;;;;;5047690;28;1157;-65
2023/07/12 03:18:02;;;;;;;;;;;;;;;;;;5048520;28;4633;-64
2023/07/12 03:20:27;;;;;;;;;;;;;;;;;;5048922;28;5044;-67
2023/07/12 03:22:53;;;;;;;;;;;;;;;;;;5048211;28;5077;-67
2023/07/12 03:25:18;;;;;;;;;;;;;;;;;;5048890;28;5028;-65
2023/07/12 03:27:43;;;;;;;;;;;;;;;;;;5048765;28;1093;-66
2023/07/12 03:30:09;;;;;;;;;;;;;;;;;;5049532;28;4348;-64
2023/07/12 03:32:34;;;;;;;;;;;;;;;;;;5049135;28;4494;-66
2023/07/12 03:34:59;;;;;;;;;;;;;;;;;;5048778;28;4704;-62
2023/07/12 03:37:25;;;;;;;;;;;;;;;;;;5048708;28;5986;-62
2023/07/12 03:39:50;;;;;;;;;;;;;;;;;;5048987;28;1289;-62
2023/07/12 03:42:16;;;;;;;;;;;;;;;;;;5047615;28;5033;-65
2023/07/12 03:44:41;;;;;;;;;;;;;;;;;;5064200;28;5079;-66
2023/07/12 03:47:06;;;;;;;;;;;;;;;;;;5048754;28;5144;-64
2023/07/12 03:49:32;;;;;;;;;;;;;;;;;;5048839;28;4870;-65
2023/07/12 03:51:57;;;;;;;;;;;;;;;;;;5048466;28;1231;-65
2023/07/12 03:54:23;;;;;;;;;;;;;;;;;;5049157;28;5465;-63
2023/07/12 03:56:48;;;;;;;;;;;;;;;;;;5047688;28;4438;-68
2023/07/12 03:59:13;;;;;;;;;;;;;;;;;;5048385;28;4613;-68
2023/07/12 04:01:38;;;;;;;;;;;;;;;;;;5047792;28;5040;-66
2023/07/12 04:04:04;;;;;;;;;;;;;;;;;;5048654;28;1275;-66
2023/07/12 04:06:29;;;;;;;;;;;;;;;;;;5048322;28;4954;-65
2023/07/12 04:08:54;;;;;;;;;;;;;;;;;;5045425;28;4502;-63
2023/07/12 04:11:25;;;;;;;;;;;;;;;;;;5044063;28;4476;-63
2023/07/12 04:13:50;;;;;;;;;;;;;;;;;;5044504;28;4888;-62
2023/07/12 04:16:15;;;;;;;;;;;;;;;;;;5048046;28;4966;-62
2023/07/12 04:18:41;;;;;;;;;;;;;;;;;;5048099;28;2536;-62
2023/07/12 04:21:06;;;;;;;;;;;;;;;;;;5047288;28;5017;-64
2023/07/12 04:23:31;;;;;;;;;;;;;;;;;;5061853;28;4594;-65
2023/07/12 04:25:57;;;;;;;;;;;;;;;;;;5048059;28;5110;-64
2023/07/12 04:28:22;;;;;;;;;;;;;;;;;;5047558;28;5035;-70
2023/07/12 04:30:48;;;;;;;;;;;;;;;;;;5048628;28;1145;-64
2023/07/12 04:33:13;;;;;;;;;;;;;;;;;;5047587;28;5157;-64
2023/07/12 04:35:38;;;;;;;;;;;;;;;;;;5047825;28;5140;-62
2023/07/12 04:38:04;;;;;;;;;;;;;;;;;;5043325;28;4504;-65
2023/07/12 04:40:29;;;;;;;;;;;;;;;;;;5048037;28;5028;-65
2023/07/12 04:42:54;;;;;;;;;;;;;;;;;;5048098;28;1469;-65
2023/07/12 04:45:19;;;;;;;;;;;;;;;;;;5047252;28;4827;-64
2023/07/12 04:47:45;;;;;;;;;;;;;;;;;;5045678;28;5115;-64
2023/07/12 04:50:11;;;;;;;;;;;;;;;;;;5049340;28;4467;-68
2023/07/12 04:52:36;;;;;;;;;;;;;;;;;;5045940;28;4607;-64
2023/07/12 04:55:01;;;;;;;;;;;;;;;;;;5047974;28;1128;-64
2023/07/12 04:57:27;;;;;;;;;;;;;;;;;;5047182;28;5085;-62
2023/07/12 04:59:52;;;;;;;;;;;;;;;;;;5047134;28;4397;-64
2023/07/12 05:02:17;;;;;;;;;;;;;;;;;;5047521;28;5358;-68
2023/07/12 05:04:43;;;;;;;;;;;;;;;;;;5041735;28;4824;-67
2023/07/12 05:07:09;;;;;;;;;;;;;;;;;;5041480;28;4550;-64
2023/07/12 05:09:35;;;;;;;;;;;;;;;;;;5043157;28;3202;-70
2023/07/12 05:12:00;;;;;;;;;;;;;;;;;;5044529;28;4946;-63
2023/07/12 05:14:25;;;;;;;;;;;;;;;;;;5039554;28;4989;-61
2023/07/12 05:16:50;;;;;;;;;;;;;;;;;;5043159;28;5239;-61
2023/07/12 05:19:16;;;;;;;;;;;;;;;;;;5036740;28;4867;-61
2023/07/12 05:21:41;;;;;;;;;;;;;;;;;;5044195;28;5163;-61
2023/07/12 05:24:06;;;;;;;;;;;;;;;;;;5046290;28;4540;-61
2023/07/12 05:26:32;;;;;;;;;;;;;;;;;;5049149;28;4909;-61
2023/07/12 05:28:57;;;;;;;;;;;;;;;;;;5050301;28;4742;-61
2023/07/12 05:31:22;;;;;;;;;;;;;;;;;;5050143;28;5084;-61
2023/07/12 05:33:47;;;;;;;;;;;;;;;;;;5046831;28;1089;-60
2023/07/12 05:36:13;;;;;;;;;;;;;;;;;;5044272;28;4429;-61
2023/07/12 05:38:38;;;;;;;;;;;;;;;;;;5050825;28;4419;-61
2023/07/12 05:41:03;;;;;;;;;;;;;;;;;;5050996;28;4983;-60
2023/07/12 05:43:29;;;;;;;;;;;;;;;;;;5050157;28;4904;-61
2023/07/12 05:45:56;;;;;;;;;;;;;;;;;;5051231;28;1938;-61
2023/07/12 05:48:21;;;;;;;;;;;;;;;;;;5047728;28;4955;-61
2023/07/12 05:50:49;;;;;;;;;;;;;;;;;;5049297;28;5041;-61
2023/07/12 05:53:14;;;;;;;;;;;;;;;;;;5050076;28;5114;-62
2023/07/12 05:55:39;;;;;;;;;;;;;;;;;;5050329;28;4927;-61
2023/07/12 05:58:05;;;;;;;;;;;;;;;;;;5050320;28;5292;-62
2023/07/12 06:00:30;;;;;;;;;;;;;;;;;;5050665;28;1074;-61
2023/07/12 06:02:56;;;;;;;;;;;;;;;;;;5048529;28;5154;-61
2023/07/12 06:05:22;;;;;;;;;;;;;;;;;;5050076;28;5034;-61
2023/07/12 06:07:48;;;;;;;;;;;;;;;;;;5046138;28;5074;-61
2023/07/12 06:10:15;;;;;;;;;;;;;;;;;;5050189;28;5102;-61
2023/07/12 06:12:40;;;;;;;;;;;;;;;;;;5050116;28;1406;-61
2023/07/12 06:15:06;;;;;;;;;;;;;;;;;;5045594;28;5117;-61
2023/07/12 06:17:31;;;;;;;;;;;;;;;;;;5049397;28;5031;-61
2023/07/12 06:19:56;;;;;;;;;;;;;;;;;;5049977;28;4656;-61
2023/07/12 06:22:22;;;;;;;;;;;;;;;;;;5049892;28;5071;-62
2023/07/12 06:24:47;;;;;;;;;;;;;;;;;;5050434;28;1979;-62
2023/07/12 06:27:13;;;;;;;;;;;;;;;;;;5068825;28;4407;-61
2023/07/12 06:29:39;;;;;;;;;;;;;;;;;;5047577;28;4942;-62
2023/07/12 06:32:05;;;;;;;;;;;;;;;;;;5050157;28;4962;-62
2023/07/12 06:34:30;;;;;;;;;;;;;;;;;;5049989;28;5005;-62
2023/07/12 06:36:55;;;;;;;;;;;;;;;;;;5050089;28;1217;-61
2023/07/12 06:39:21;;;;;;;;;;;;;;;;;;5049613;28;5019;-61
2023/07/12 06:41:46;;;;;;;;;;;;;;;;;;5054645;28;5891;-62
2023/07/12 06:44:11;;;;;;;;;;;;;;;;;;5046078;28;5053;-61
2023/07/12 06:46:36;;;;;;;;;;;;;;;;;;5049528;28;4463;-61
2023/07/12 06:49:02;;;;;;;;;;;;;;;;;;5050715;28;1330;-61
2023/07/12 06:51:27;;;;;;;;;;;;;;;;;;5048233;28;5028;-61
2023/07/12 06:53:52;;;;;;;;;;;;;;;;;;5064487;28;5181;-61
2023/07/12 06:56:17;;;;;;;;;;;;;;;;;;5050268;28;5039;-60
2023/07/12 06:58:43;;;;;;;;;;;;;;;;;;5044414;28;5010;-60
2023/07/12 07:01:08;;;;;;;;;;;;;;;;;;5044640;28;5030;-61
2023/07/12 07:03:34;;;;;;;;;;;;;;;;;;5048773;28;1315;-61
2023/07/12 07:05:59;;;;;;;;;;;;;;;;;;5049584;28;4400;-61
2023/07/12 07:08:24;;;;;;;;;;;;;;;;;;5049436;28;4506;-61
2023/07/12 07:10:50;;;;;;;;;;;;;;;;;;5049308;28;4693;-61
2023/07/12 07:13:15;;;;;;;;;;;;;;;;;;5039879;28;5157;-61
2023/07/12 07:15:40;;;;;;;;;;;;;;;;;;5047126;28;1165;-61
2023/07/12 07:18:07;;;;;;;;;;;;;;;;;;5038175;28;5154;-61
2023/07/12 07:20:33;;;;;;;;;;;;;;;;;;5048849;28;5052;-60
2023/07/12 07:22:59;;;;;;;;;;;;;;;;;;5048996;28;4983;-61
2023/07/12 07:25:25;;;;;;;;;;;;;;;;;;5052459;28;6964;-60
2023/07/12 07:27:51;;;;;;;;;;;;;;;;;;5040089;28;1135;-60
2023/07/12 07:30:16;;;;;;;;;;;;;;;;;;5049256;28;5392;-61
2023/07/12 07:32:41;;;;;;;;;;;;;;;;;;5049125;28;4940;-61
2023/07/12 07:35:07;;;;;;;;;;;;;;;;;;5047863;28;5002;-61
2023/07/12 07:37:32;;;;;;;;;;;;;;;;;;5049734;28;5057;-61
2023/07/12 07:39:58;;;;;;;;;;;;;;;;;;5046991;28;1548;-61
2023/07/12 07:42:23;;;;;;;;;;;;;;;;;;5061478;28;4451;-61
2023/07/12 07:44:48;;;;;;;;;;;;;;;;;;5048794;28;5187;-61
2023/07/12 07:47:14;;;;;;;;;;;;;;;;;;5048533;28;4938;-61
2023/07/12 07:49:39;;;;;;;;;;;;;;;;;;5047895;28;4637;-60
2023/07/12 07:52:05;;;;;;;;;;;;;;;;;;5048150;28;4901;-60
2023/07/12 07:54:30;;;;;;;;;;;;;;;;;;5034923;28;3145;-61
2023/07/12 07:56:55;;;;;;;;;;;;;;;;;;5047167;28;4798;-61
2023/07/12 07:59:21;;;;;;;;;;;;;;;;;;5047841;28;5114;-61
2023/07/12 08:01:46;;;;;;;;;;;;;;;;;;5046682;28;5172;-60
2023/07/12 08:04:11;;;;;;;;;;;;;;;;;;5049941;28;5246;-61
2023/07/12 08:06:38;;;;;;;;;;;;;;;;;;5049963;28;1910;-61
2023/07/12 08:09:04;;;;;;;;;;;;;;;;;;5081882;28;4711;-62
2023/07/12 08:11:29;;;;;;;;;;;;;;;;;;5064434;28;4531;-62
2023/07/12 08:13:54;;;;;;;;;;;;;;;;;;5047636;28;5015;-62
2023/07/12 08:16:20;;;;;;;;;;;;;;;;;;5047612;28;5046;-63
2023/07/12 08:18:45;;;;;;;;;;;;;;;;;;5052232;28;1333;-63
2023/07/12 08:21:11;;;;;;;;;;;;;;;;;;5047506;28;4950;-63
2023/07/12 08:23:36;;;;;;;;;;;;;;;;;;5050467;28;4962;-63
2023/07/12 08:26:02;;;;;;;;;;;;;;;;;;5057210;28;4634;-63
2023/07/12 08:28:27;;;;;;;;;;;;;;;;;;5047862;28;5090;-64
2023/07/12 08:30:52;;;;;;;;;;;;;;;;;;5048767;28;1184;-63
2023/07/12 08:33:18;;;;;;;;;;;;;;;;;;5047449;28;5090;-63
2023/07/12 08:35:44;;;;;;;;;;;;;;;;;;5046689;28;5018;-62
2023/07/12 08:38:09;;;;;;;;;;;;;;;;;;5029580;28;5088;-62
2023/07/12 08:40:36;;;;;;;;;;;;;;;;;;5069655;28;5133;-62
2023/07/12 08:43:01;;;;;;;;;;;;;;;;;;5026517;28;1358;-62
2023/07/12 08:45:32;;;;;;;;;;;;;;;;;;5046764;28;5077;-62
2023/07/12 08:48:05;;;;;;;;;;;;;;;;;;5047672;28;4605;-62
2023/07/12 08:50:39;;;;;;;;;;;;;;;;;;5047852;28;5066;-62
2023/07/12 08:53:05;;;;;;;;;;;;;;;;;;5056666;28;4897;-62
2023/07/12 08:55:32;;;;;;;;;;;;;;;;;;5066703;28;4908;-62
2023/07/12 08:57:58;;;;;;;;;;;;;;;;;;5068638;28;1171;-62
2023/07/12 09:00:26;;;;;;;;;;;;;;;;;;5033311;28;4988;-62
2023/07/12 09:02:51;;;;;;;;;;;;;;;;;;5047081;28;4931;-62
2023/07/12 09:05:17;;;;;;;;;;;;;;;;;;5048497;28;5116;-63
2023/07/12 09:07:49;;;;;;;;;;;;;;;;;;5052758;28;5001;-62
2023/07/12 09:10:25;;;;;;;;;;;;;;;;;;5049105;28;4701;-63
2023/07/12 09:12:51;;;;;;;;;;;;;;;;;;5051735;28;1433;-63
2023/07/12 09:15:16;;;;;;;;;;;;;;;;;;5047603;28;4927;-63
2023/07/12 09:17:42;;;;;;;;;;;;;;;;;;5050282;28;4438;-63
2023/07/12 09:20:24;;;;;;;;;;;;;;;;;;5046083;28;5114;-62
2023/07/12 09:22:50;;;;;;;;;;;;;;;;;;5047298;28;5020;-63
2023/07/12 09:25:19;;;;;;;;;;;;;;;;;;5050363;28;4504;-60
2023/07/12 09:27:45;;;;;;;;;;;;;;;;;;5047442;28;3776;-64
2023/07/12 09:30:10;;;;;;;;;;;;;;;;;;5050406;28;5232;-63
2023/07/12 09:32:36;;;;;;;;;;;;;;;;;;5047658;28;5381;-64
2023/07/12 09:35:21;;;;;;;;;;;;;;;;;;5064949;28;5064;-63
2023/07/12 09:37:46;;;;;;;;;;;;;;;;;;5046623;28;4877;-63
2023/07/12 09:40:15;;;;;;;;;;;;;;;;;;5050061;28;4477;-64
2023/07/12 09:42:40;;;;;;;;;;;;;;;;;;5048792;28;1386;-62
2023/07/12 09:45:08;;;;;;;;;;;;;;;;;;5050810;28;4483;-65
2023/07/12 09:47:42;;;;;;;;;;;;;;;;;;5064450;28;5089;-61
2023/07/12 09:50:14;;;;;;;;;;;;;;;;;;5049975;28;5145;-64
2023/07/12 09:52:45;;;;;;;;;;;;;;;;;;5049734;28;5078;-62
2023/07/12 09:55:19;;;;;;;;;;;;;;;;;;5032480;28;4752;-63
2023/07/12 09:57:45;;;;;;;;;;;;;;;;;;5051209;28;1187;-62
2023/07/12 10:00:22;;;;;;;;;;;;;;;;;;5047392;28;5046;-62
2023/07/12 10:02:50;;;;;;;;;;;;;;;;;;5050297;28;5225;-61
2023/07/12 10:05:18;;;;;;;;;;;;;;;;;;5050798;28;5025;-62
2023/07/12 10:07:46;;;;;;;;;;;;;;;;;;5029774;28;5092;-62
2023/07/12 10:10:21;;;;;;;;;;;;;;;;;;5047229;28;4527;-61
2023/07/12 10:12:48;;;;;;;;;;;;;;;;;;5048684;28;3290;-58
2023/07/12 10:15:13;;;;;;;;;;;;;;;;;;5060524;28;4808;-61
2023/07/12 10:17:39;;;;;;;;;;;;;;;;;;5030036;28;4954;-60
2023/07/12 10:20:05;;;;;;;;;;;;;;;;;;5066017;28;4788;-64
2023/07/12 10:22:33;;;;;;;;;;;;;;;;;;5049117;28;5089;-65
2023/07/12 10:24:58;;;;;;;;;;;;;;;;;;5050350;28;1973;-67
2023/07/12 10:27:24;;;;;;;;;;;;;;;;;;5062565;28;4979;-70
2023/07/12 10:29:56;;;;;;;;;;;;;;;;;;5049922;28;4473;-64
2023/07/12 10:32:23;;;;;;;;;;;;;;;;;;5047419;28;4491;-67
2023/07/12 10:34:51;;;;;;;;;;;;;;;;;;5048007;28;4495;-67
2023/07/12 10:37:29;;;;;;;;;;;;;;;;;;5062029;28;5047;-65
2023/07/12 10:39:54;;;;;;;;;;;;;;;;;;5054820;28;3340;-68
2023/07/12 10:42:29;;;;;;;;;;;;;;;;;;5032101;28;5074;-66
2023/07/12 10:44:54;;;;;;;;;;;;;;;;;;5064941;28;4980;-69
2023/07/12 10:47:20;;;;;;;;;;;;;;;;;;5065750;28;4837;-65
2023/07/12 10:49:57;;;;;;;;;;;;;;;;;;5049924;28;5067;-66
2023/07/12 10:52:36;;;;;;;;;;;;;;;;;;5049092;28;4675;-63
2023/07/12 10:55:06;;;;;;;;;;;;;;;;;;5031934;28;2386;-64
2023/07/12 10:57:57;;;;;;;;;;;;;;;;;;5047383;28;4966;-63
2023/07/12 11:00:32;;;;;;;;;;;;;;;;;;5046476;28;5056;-64
2023/07/12 11:02:57;;;;;;;;;;;;;;;;;;5066155;28;4928;-76
2023/07/12 11:05:39;;;;;;;;;;;;;;;;;;5047881;28;5094;-71
2023/07/12 11:08:04;;;;;;;;;;;;;;;;;;5044064;28;5119;-70
2023/07/12 11:10:31;;;;;;;;;;;;;;;;;;5051583;28;4445;-69
2023/07/12 11:13:01;;;;;;;;;;;;;;;;;;5065460;28;2326;-69
2023/07/12 11:15:27;;;;;;;;;;;;;;;;;;5059692;28;4535;-59
2023/07/12 11:18:07;;;;;;;;;;;;;;;;;;5063113;28;4534;-62
2023/07/12 11:20:35;;;;;;;;;;;;;;;;;;5047624;28;4700;-66
2023/07/12 11:23:21;;;;;;;;;;;;;;;;;;5046138;28;5046;-59
2023/07/12 11:25:49;;;;;;;;;;;;;;;;;;5038960;28;4647;-62
2023/07/12 11:28:33;;;;;;;;;;;;;;;;;;5046656;28;5080;-59
2023/07/12 11:31:16;;;;;;;;;;;;;;;;;;5047444;28;1275;-60
2023/07/12 11:33:44;;;;;;;;;;;;;;;;;;5047338;28;5031;-61
2023/07/12 11:36:10;;;;;;;;;;;;;;;;;;5048908;28;4452;-61
2023/07/12 11:38:36;;;;;;;;;;;;;;;;;;5026900;28;4980;-60
2023/07/12 11:41:05;;;;;;;;;;;;;;;;;;5047572;28;4982;-61
2023/07/12 11:43:34;;;;;;;;;;;;;;;;;;5046966;28;5277;-61
2023/07/12 11:46:00;;;;;;;;;;;;;;;;;;5048184;28;1910;-61
2023/07/12 11:48:28;;;;;;;;;;;;;;;;;;5062416;28;4615;-61
2023/07/12 11:50:53;;;;;;;;;;;;;;;;;;5020442;28;5109;-60
2023/07/12 11:53:18;;;;;;;;;;;;;;;;;;5028212;28;4976;-61
2023/07/12 11:55:46;;;;;;;;;;;;;;;;;;5046789;28;5109;-61
2023/07/12 11:58:20;;;;;;;;;;;;;;;;;;5047233;28;4672;-61
2023/07/12 12:00:46;;;;;;;;;;;;;;;;;;5039882;28;1128;-61
2023/07/12 12:03:13;;;;;;;;;;;;;;;;;;5044571;28;4873;-61
2023/07/12 12:05:38;;;;;;;;;;;;;;;;;;5065738;28;4852;-61
2023/07/12 12:08:03;;;;;;;;;;;;;;;;;;5062834;28;4658;-61
2023/07/12 12:10:29;;;;;;;;;;;;;;;;;;5046539;28;5065;-61
2023/07/12 12:12:55;;;;;;;;;;;;;;;;;;5061839;28;2046;-61
2023/07/12 12:15:24;;;;;;;;;;;;;;;;;;5060217;28;4629;-61
2023/07/12 12:17:50;;;;;;;;;;;;;;;;;;5046824;28;4966;-62
2023/07/12 12:20:15;;;;;;;;;;;;;;;;;;5066140;28;4647;-61
2023/07/12 12:22:41;;;;;;;;;;;;;;;;;;5044301;28;4979;-63
2023/07/12 12:25:13;;;;;;;;;;;;;;;;;;5046853;28;4972;-62
2023/07/12 12:27:39;;;;;;;;;;;;;;;;;;5063155;28;1266;-62
2023/07/12 12:30:10;;;;;;;;;;;;;;;;;;5046697;28;5097;-63
2023/07/12 12:32:38;;;;;;;;;;;;;;;;;;5022788;28;4512;-62
2023/07/12 12:35:03;;;;;;;;;;;;;;;;;;5035863;28;5004;-65
2023/07/12 12:37:29;;;;;;;;;;;;;;;;;;5061570;28;5083;-60
2023/07/12 12:39:58;;;;;;;;;;;;;;;;;;5047865;28;1465;-69
2023/07/12 12:42:24;;;;;;;;;;;;;;;;;;5046227;28;4544;-69
2023/07/12 12:44:51;;;;;;;;;;;;;;;;;;5047964;28;5611;-68
2023/07/12 12:47:23;;;;;;;;;;;;;;;;;;5046553;28;5027;-67
2023/07/12 12:49:48;;;;;;;;;;;;;;;;;;5041355;28;4466;-77
2023/07/12 12:52:24;;;;;;;;;;;;;;;;;;5045761;28;4990;-68
2023/07/12 12:54:49;;;;;;;;;;;;;;;;;;5044107;28;1564;-67
2023/07/12 12:57:15;;;;;;;;;;;;;;;;;;5051887;28;5276;-68
2023/07/12 12:59:40;;;;;;;;;;;;;;;;;;5045747;28;4961;-71
2023/07/12 13:02:11;;;;;;;;;;;;;;;;;;5046456;28;4447;-70
2023/07/12 13:04:37;;;;;;;;;;;;;;;;;;5041462;28;5126;-67
2023/07/12 13:07:03;;;;;;;;;;;;;;;;;;5047310;28;1988;-68
2023/07/12 13:09:29;;;;;;;;;;;;;;;;;;5045881;28;4790;-75
2023/07/12 13:11:54;;;;;;;;;;;;;;;;;;5046023;28;5279;-67
2023/07/12 13:14:20;;;;;;;;;;;;;;;;;;5044393;28;4530;-69
2023/07/12 13:16:45;;;;;;;;;;;;;;;;;;5047745;28;5094;-68
2023/07/12 13:19:13;;;;;;;;;;;;;;;;;;5045485;28;5299;-66
2023/07/12 13:21:38;;;;;;;;;;;;;;;;;;5046616;28;4794;-68
2023/07/12 13:24:04;;;;;;;;;;;;;;;;;;5062453;28;4609;-66
2023/07/12 13:26:29;;;;;;;;;;;;;;;;;;5046271;28;4478;-65
2023/07/12 13:28:55;;;;;;;;;;;;;;;;;;5061242;28;5763;-62
2023/07/12 13:31:20;;;;;;;;;;;;;;;;;;5045028;28;5075;-65
2023/07/12 13:33:46;;;;;;;;;;;;;;;;;;5062377;28;1144;-65
2023/07/12 13:36:29;;;;;;;;;;;;;;;;;;5046808;28;4446;-65
2023/07/12 13:38:57;;;;;;;;;;;;;;;;;;5041577;28;5216;-65
2023/07/12 13:41:22;;;;;;;;;;;;;;;;;;5050193;28;4688;-68
2023/07/12 13:43:48;;;;;;;;;;;;;;;;;;5045678;28;4464;-65
2023/07/12 13:46:14;;;;;;;;;;;;;;;;;;5060448;28;5357;-63
2023/07/12 13:48:40;;;;;;;;;;;;;;;;;;5065437;28;1195;-63
2023/07/12 13:51:09;;;;;;;;;;;;;;;;;;5031892;28;5034;-63
2023/07/12 13:53:34;;;;;;;;;;;;;;;;;;5069891;28;4687;-67
2023/07/12 13:56:00;;;;;;;;;;;;;;;;;;5050186;28;4603;-61
2023/07/12 13:58:25;;;;;;;;;;;;;;;;;;5049167;28;4442;-63
2023/07/12 14:00:50;;;;;;;;;;;;;;;;;;5049015;28;1067;-62
2023/07/12 14:03:15;;;;;;;;;;;;;;;;;;5041885;28;5044;-66
2023/07/12 14:05:41;;;;;;;;;;;;;;;;;;5043461;28;5220;-67
2023/07/12 14:08:08;;;;;;;;;;;;;;;;;;5047783;28;5184;-65
2023/07/12 14:10:33;;;;;;;;;;;;;;;;;;5062764;28;5091;-61
2023/07/12 14:12:58;;;;;;;;;;;;;;;;;;5047949;28;3246;-65
2023/07/12 14:15:24;;;;;;;;;;;;;;;;;;5042980;28;4833;-61
2023/07/12 14:17:50;;;;;;;;;;;;;;;;;;5044914;28;5089;-59
2023/07/12 14:20:15;;;;;;;;;;;;;;;;;;5047200;28;5041;-60
2023/07/12 14:22:40;;;;;;;;;;;;;;;;;;5060553;28;5427;-61
2023/07/12 14:25:06;;;;;;;;;;;;;;;;;;5047319;28;5018;-60
2023/07/12 14:27:35;;;;;;;;;;;;;;;;;;5045831;28;1180;-61
2023/07/12 14:30:00;;;;;;;;;;;;;;;;;;5045141;28;5041;-60
2023/07/12 14:32:36;;;;;;;;;;;;;;;;;;5061880;28;5047;-61
2023/07/12 14:35:03;;;;;;;;;;;;;;;;;;5043477;28;5032;-60
2023/07/12 14:37:29;;;;;;;;;;;;;;;;;;5044818;28;5136;-60
2023/07/12 14:39:54;;;;;;;;;;;;;;;;;;5049303;28;1152;-60
2023/07/12 14:42:19;;;;;;;;;;;;;;;;;;5064082;28;4597;-61
2023/07/12 14:44:45;;;;;;;;;;;;;;;;;;5048858;28;4975;-60
2023/07/12 14:47:11;;;;;;;;;;;;;;;;;;5049494;28;4713;-65
2023/07/12 14:49:36;;;;;;;;;;;;;;;;;;5055150;28;4791;-65
2023/07/12 14:52:02;;;;;;;;;;;;;;;;;;5049025;28;1532;-65
2023/07/12 14:54:27;;;;;;;;;;;;;;;;;;5051985;28;4771;-65
2023/07/12 14:56:52;;;;;;;;;;;;;;;;;;5053310;28;4453;-64
2023/07/12 14:59:17;;;;;;;;;;;;;;;;;;5047804;28;4937;-66
2023/07/12 15:01:43;;;;;;;;;;;;;;;;;;5048317;28;5047;-65
2023/07/12 15:04:12;;;;;;;;;;;;;;;;;;5048875;28;5049;-65
2023/07/12 15:06:37;;;;;;;;;;;;;;;;;;5048494;28;1979;-66
2023/07/12 15:09:04;;;;;;;;;;;;;;;;;;5047928;28;4901;-65
2023/07/12 15:11:31;;;;;;;;;;;;;;;;;;5047513;28;5252;-66
2023/07/12 15:13:57;;;;;;;;;;;;;;;;;;5043680;28;5091;-65
2023/07/12 15:16:22;;;;;;;;;;;;;;;;;;5038829;28;4876;-66
2023/07/12 15:18:48;;;;;;;;;;;;;;;;;;5048478;28;1179;-65
2023/07/12 15:21:16;;;;;;;;;;;;;;;;;;5047080;28;4817;-58
2023/07/12 15:23:42;;;;;;;;;;;;;;;;;;5044153;28;4649;-58
2023/07/12 15:26:07;;;;;;;;;;;;;;;;;;5030168;28;5046;-59
2023/07/12 15:28:38;;;;;;;;;;;;;;;;;;5062488;28;5135;-58
2023/07/12 15:31:03;;;;;;;;;;;;;;;;;;5046268;28;3527;-58
2023/07/12 15:33:28;;;;;;;;;;;;;;;;;;5061665;28;4893;-57
2023/07/12 15:35:56;;;;;;;;;;;;;;;;;;5045871;28;4516;-56
2023/07/12 15:38:22;;;;;;;;;;;;;;;;;;5046358;28;4995;-58
2023/07/12 15:40:48;;;;;;;;;;;;;;;;;;5044108;28;4997;-56
2023/07/12 15:43:16;;;;;;;;;;;;;;;;;;5046923;28;5048;-55
2023/07/12 15:45:41;;;;;;;;;;;;;;;;;;5047888;28;1909;-55
2023/07/12 15:48:17;;;;;;;;;;;;;;;;;;5047095;28;5077;-58
2023/07/12 15:50:43;;;;;;;;;;;;;;;;;;5058515;28;4991;-58
2023/07/12 15:53:17;;;;;;;;;;;;;;;;;;5042891;28;4964;-58
2023/07/12 15:55:43;;;;;;;;;;;;;;;;;;5041255;28;4780;-58
2023/07/12 15:58:18;;;;;;;;;;;;;;;;;;5045591;28;5068;-58
2023/07/12 16:00:44;;;;;;;;;;;;;;;;;;5045847;28;1077;-56
2023/07/12 16:03:22;;;;;;;;;;;;;;;;;;5027923;28;4774;-58
2023/07/12 16:05:48;;;;;;;;;;;;;;;;;;5064419;28;5071;-58
2023/07/12 16:08:14;;;;;;;;;;;;;;;;;;5047894;28;5189;-58
2023/07/12 16:10:39;;;;;;;;;;;;;;;;;;5045518;28;5086;-58
2023/07/12 16:13:04;;;;;;;;;;;;;;;;;;5047322;28;4954;-58
2023/07/12 16:15:29;;;;;;;;;;;;;;;;;;5045361;28;1137;-58
2023/07/12 16:17:54;;;;;;;;;;;;;;;;;;5048180;28;4635;-58
2023/07/12 16:20:20;;;;;;;;;;;;;;;;;;5044691;28;5048;-57
2023/07/12 16:22:46;;;;;;;;;;;;;;;;;;5061911;28;4773;-56
2023/07/12 16:25:15;;;;;;;;;;;;;;;;;;5047813;28;4715;-55
2023/07/12 16:27:41;;;;;;;;;;;;;;;;;;5052293;28;1353;-56
2023/07/12 16:30:07;;;;;;;;;;;;;;;;;;5051151;28;5178;-61
2023/07/12 16:32:32;;;;;;;;;;;;;;;;;;5043260;28;5117;-59
2023/07/12 16:34:58;;;;;;;;;;;;;;;;;;5045326;28;5146;-61
2023/07/12 16:37:23;;;;;;;;;;;;;;;;;;5044816;28;4439;-57
2023/07/12 16:39:48;;;;;;;;;;;;;;;;;;5042329;28;3480;-61
2023/07/12 16:42:22;;;;;;;;;;;;;;;;;;5045809;28;5484;-59
2023/07/12 16:44:48;;;;;;;;;;;;;;;;;;5046767;28;5102;-60
2023/07/12 16:47:15;;;;;;;;;;;;;;;;;;5042107;28;4923;-57
2023/07/12 16:49:40;;;;;;;;;;;;;;;;;;5052829;28;4880;-58
2023/07/12 16:52:09;;;;;;;;;;;;;;;;;;5022770;28;4521;-51
2023/07/12 16:54:34;;;;;;;;;;;;;;;;;;5023850;28;3369;-54
2023/07/12 16:56:59;;;;;;;;;;;;;;;;;;5045044;28;5128;-54
2023/07/12 16:59:26;;;;;;;;;;;;;;;;;;5045575;28;5607;-60